sensor_id;sensor_type;location;lat;lon;timestamp;pressure;altitude;pressure_sealevel;temperature;humidity
33265;BME280;31404;53.974;-1.086;2023-02-04T00:00:37;103324.05;;;8.50;100.00
33265;BME280;31404;53.974;-1.086;2023-02-04T00:05:35;103328.47;;;9.41;99.43
33265;BME280;31404;53.974;-1.086;2023-02-04T00:10:36;103326.94;;;9.96;95.48
33265;BME280;31404;53.974;-1.086;2023-02-04T00:15:35;103328.44;;;7.24;100.00
33265;BME280;31404;53.974;-1.086;2023-02-04T00:20:35;103326.30;;;8.37;100.00
33265;BME280;31404;53.974;-1.086;2023-02-04T00:25:34;103324.73;;;9.20;100.00
33265;BME280;31404;53.974;-1.086;2023-02-04T00:30:34;103327.40;;;7.32;100.00
33265;BME280;31404;53.974;-1.086;2023-02-04T00:35:34;103335.75;;;7.54;100.00
33265;BME280;31404;53.974;-1.086;2023-02-04T00:40:34;103331.76;;;9.93;99.34
33265;BME280;31404;53.974;-1.086;2023-02-04T00:45:35;103325.81;;;10.61;94.06
33265;BME280;31404;53.974;-1.086;2023-02-04T00:50:35;103333.18;;;9.72;97.57
33265;BME280;31404;53.974;-1.086;2023-02-04T00:55:35;103328.08;;;10.75;92.66
33265;BME280;31404;53.974;-1.086;2023-02-04T01:00:35;103326.97;;;10.64;91.85
33265;BME280;31404;53.974;-1.086;2023-02-04T01:05:35;103327.21;;;10.35;92.67
33265;BME280;31404;53.974;-1.086;2023-02-04T01:10:35;103337.53;;;10.12;95.01
33265;BME280;31404;53.974;-1.086;2023-02-04T01:15:35;103344.08;;;9.96;94.82
33265;BME280;31404;53.974;-1.086;2023-02-04T01:20:34;103345.99;;;10.19;94.72
33265;BME280;31404;53.974;-1.086;2023-02-04T01:25:35;103342.54;;;10.60;92.68
33265;BME280;31404;53.974;-1.086;2023-02-04T01:30:35;103346.27;;;10.78;90.56
33265;BME280;31404;53.974;-1.086;2023-02-04T01:35:35;103354.50;;;9.03;97.71
33265;BME280;31404;53.974;-1.086;2023-02-04T01:40:35;103349.09;;;10.02;95.58
33265;BME280;31404;53.974;-1.086;2023-02-04T01:45:35;103347.15;;;10.49;91.19
33265;BME280;31404;53.974;-1.086;2023-02-04T01:50:35;103348.82;;;10.57;91.40
33265;BME280;31404;53.974;-1.086;2023-02-04T01:55:36;103339.33;;;10.49;91.61
33265;BME280;31404;53.974;-1.086;2023-02-04T02:00:35;103350.16;;;9.24;96.59
33265;BME280;31404;53.974;-1.086;2023-02-04T02:05:38;103348.05;;;9.05;98.62
33265;BME280;31404;53.974;-1.086;2023-02-04T02:10:37;103344.81;;;9.83;94.35
33265;BME280;31404;53.974;-1.086;2023-02-04T02:15:34;103341.44;;;8.81;97.28
33265;BME280;31404;53.974;-1.086;2023-02-04T02:20:35;103335.04;;;9.60;96.80
33265;BME280;31404;53.974;-1.086;2023-02-04T02:25:34;103323.40;;;9.60;96.38
33265;BME280;31404;53.974;-1.086;2023-02-04T02:30:35;103325.43;;;9.77;95.05
33265;BME280;31404;53.974;-1.086;2023-02-04T02:35:35;103326.37;;;9.25;97.21
33265;BME280;31404;53.974;-1.086;2023-02-04T02:40:34;103329.73;;;9.38;95.57
33265;BME280;31404;53.974;-1.086;2023-02-04T02:45:35;103330.51;;;9.23;97.90
33265;BME280;31404;53.974;-1.086;2023-02-04T02:50:35;103331.81;;;10.30;92.81
33265;BME280;31404;53.974;-1.086;2023-02-04T02:55:35;103335.53;;;10.18;94.47
33265;BME280;31404;53.974;-1.086;2023-02-04T03:00:35;103332.63;;;10.53;91.30
33265;BME280;31404;53.974;-1.086;2023-02-04T03:05:37;103330.74;;;10.56;92.36
33265;BME280;31404;53.974;-1.086;2023-02-04T03:10:34;103330.66;;;10.49;92.21
33265;BME280;31404;53.974;-1.086;2023-02-04T03:15:35;103333.48;;;9.43;95.72
33265;BME280;31404;53.974;-1.086;2023-02-04T03:20:35;103322.83;;;10.65;90.75
33265;BME280;31404;53.974;-1.086;2023-02-04T03:25:35;103329.02;;;9.62;95.14
33265;BME280;31404;53.974;-1.086;2023-02-04T03:30:35;103325.57;;;10.70;91.72
33265;BME280;31404;53.974;-1.086;2023-02-04T03:35:35;103327.62;;;9.56;94.51
33265;BME280;31404;53.974;-1.086;2023-02-04T03:40:40;103329.69;;;9.37;96.31
33265;BME280;31404;53.974;-1.086;2023-02-04T03:45:35;103325.97;;;9.94;94.07
33265;BME280;31404;53.974;-1.086;2023-02-04T03:50:34;103323.48;;;10.09;93.34
33265;BME280;31404;53.974;-1.086;2023-02-04T03:55:34;103329.15;;;9.68;96.07
33265;BME280;31404;53.974;-1.086;2023-02-04T04:05:35;103333.46;;;9.18;99.00
33265;BME280;31404;53.974;-1.086;2023-02-04T04:10:34;103329.30;;;9.72;97.62
33265;BME280;31404;53.974;-1.086;2023-02-04T04:15:34;103329.15;;;8.81;99.73
33265;BME280;31404;53.974;-1.086;2023-02-04T04:20:35;103331.96;;;9.15;100.00
33265;BME280;31404;53.974;-1.086;2023-02-04T04:25:35;103337.56;;;9.06;100.00
33265;BME280;31404;53.974;-1.086;2023-02-04T04:30:35;103339.96;;;8.97;100.00
33265;BME280;31404;53.974;-1.086;2023-02-04T04:35:35;103346.00;;;9.05;100.00
33265;BME280;31404;53.974;-1.086;2023-02-04T04:40:35;103353.28;;;9.34;100.00
33265;BME280;31404;53.974;-1.086;2023-02-04T04:45:34;103361.17;;;8.19;100.00
33265;BME280;31404;53.974;-1.086;2023-02-04T04:50:34;103358.56;;;8.85;100.00
33265;BME280;31404;53.974;-1.086;2023-02-04T04:55:34;103362.56;;;9.01;99.80
33265;BME280;31404;53.974;-1.086;2023-02-04T05:00:34;103368.59;;;8.01;100.00
33265;BME280;31404;53.974;-1.086;2023-02-04T05:05:34;103360.05;;;7.21;100.00
33265;BME280;31404;53.974;-1.086;2023-02-04T05:10:34;103362.39;;;8.56;100.00
33265;BME280;31404;53.974;-1.086;2023-02-04T05:15:34;103368.17;;;8.33;100.00
33265;BME280;31404;53.974;-1.086;2023-02-04T05:20:35;103365.05;;;9.10;100.00
33265;BME280;31404;53.974;-1.086;2023-02-04T05:25:35;103371.90;;;9.46;100.00
33265;BME280;31404;53.974;-1.086;2023-02-04T05:30:35;103374.03;;;9.93;97.34
33265;BME280;31404;53.974;-1.086;2023-02-04T05:35:29;103368.17;;;10.67;93.40
33265;BME280;31404;53.974;-1.086;2023-02-04T05:40:34;103376.08;;;9.14;100.00
33265;BME280;31404;53.974;-1.086;2023-02-04T05:45:35;103382.08;;;8.68;100.00
33265;BME280;31404;53.974;-1.086;2023-02-04T05:50:35;103383.22;;;9.91;99.06
33265;BME280;31404;53.974;-1.086;2023-02-04T05:55:34;103389.12;;;8.66;100.00
33265;BME280;31404;53.974;-1.086;2023-02-04T06:00:34;103386.31;;;9.02;100.00
33265;BME280;31404;53.974;-1.086;2023-02-04T06:05:35;103395.57;;;9.92;98.20
33265;BME280;31404;53.974;-1.086;2023-02-04T06:10:35;103397.33;;;9.62;99.31
33265;BME280;31404;53.974;-1.086;2023-02-04T06:15:34;103397.26;;;9.12;100.00
33265;BME280;31404;53.974;-1.086;2023-02-04T06:20:35;103395.96;;;9.05;100.00
33265;BME280;31404;53.974;-1.086;2023-02-04T06:25:36;103403.23;;;9.13;100.00
33265;BME280;31404;53.974;-1.086;2023-02-04T06:30:35;103409.44;;;9.25;99.99
33265;BME280;31404;53.974;-1.086;2023-02-04T06:35:35;103418.50;;;8.05;100.00
33265;BME280;31404;53.974;-1.086;2023-02-04T06:40:35;103412.11;;;9.29;100.00
33265;BME280;31404;53.974;-1.086;2023-02-04T06:45:34;103413.75;;;7.83;100.00
33265;BME280;31404;53.974;-1.086;2023-02-04T06:50:34;103406.05;;;9.00;100.00
33265;BME280;31404;53.974;-1.086;2023-02-04T06:55:35;103419.86;;;8.20;100.00
33265;BME280;31404;53.974;-1.086;2023-02-04T07:00:35;103422.54;;;9.28;99.83
33265;BME280;31404;53.974;-1.086;2023-02-04T07:05:36;103420.20;;;9.03;100.00
33265;BME280;31404;53.974;-1.086;2023-02-04T07:10:35;103419.80;;;9.68;98.48
33265;BME280;31404;53.974;-1.086;2023-02-04T07:15:34;103424.85;;;9.57;99.24
33265;BME280;31404;53.974;-1.086;2023-02-04T07:20:34;103437.27;;;8.83;100.00
33265;BME280;31404;53.974;-1.086;2023-02-04T07:25:35;103439.37;;;9.11;100.00
33265;BME280;31404;53.974;-1.086;2023-02-04T07:30:35;103443.57;;;7.32;100.00
33265;BME280;31404;53.974;-1.086;2023-02-04T07:35:34;103450.84;;;8.97;100.00
33265;BME280;31404;53.974;-1.086;2023-02-04T07:40:35;103454.79;;;7.96;100.00
33265;BME280;31404;53.974;-1.086;2023-02-04T07:45:35;103461.82;;;8.49;100.00
33265;BME280;31404;53.974;-1.086;2023-02-04T07:50:35;103460.54;;;8.77;100.00
33265;BME280;31404;53.974;-1.086;2023-02-04T07:55:35;103459.31;;;8.68;100.00
33265;BME280;31404;53.974;-1.086;2023-02-04T08:00:34;103459.75;;;7.45;100.00
33265;BME280;31404;53.974;-1.086;2023-02-04T08:05:34;103461.31;;;6.52;100.00
33265;BME280;31404;53.974;-1.086;2023-02-04T08:10:34;103459.53;;;7.21;100.00
33265;BME280;31404;53.974;-1.086;2023-02-04T08:15:35;103466.61;;;5.71;100.00
33265;BME280;31404;53.974;-1.086;2023-02-04T08:20:35;103468.02;;;5.62;100.00
33265;BME280;31404;53.974;-1.086;2023-02-04T08:25:34;103470.75;;;6.16;100.00
33265;BME280;31404;53.974;-1.086;2023-02-04T08:30:34;103475.49;;;6.08;100.00
33265;BME280;31404;53.974;-1.086;2023-02-04T08:35:35;103482.57;;;6.79;100.00
33265;BME280;31404;53.974;-1.086;2023-02-04T08:40:35;103487.36;;;6.30;100.00
33265;BME280;31404;53.974;-1.086;2023-02-04T08:45:35;103486.80;;;6.45;100.00
33265;BME280;31404;53.974;-1.086;2023-02-04T08:50:35;103483.14;;;7.12;100.00
33265;BME280;31404;53.974;-1.086;2023-02-04T08:55:34;103479.35;;;7.48;100.00
33265;BME280;31404;53.974;-1.086;2023-02-04T09:00:34;103479.40;;;7.69;100.00
33265;BME280;31404;53.974;-1.086;2023-02-04T09:05:35;103472.57;;;7.84;100.00
33265;BME280;31404;53.974;-1.086;2023-02-04T09:10:35;103469.67;;;8.67;100.00
33265;BME280;31404;53.974;-1.086;2023-02-04T09:15:35;103468.07;;;9.07;98.75
33265;BME280;31404;53.974;-1.086;2023-02-04T09:20:34;103469.14;;;9.10;100.00
33265;BME280;31404;53.974;-1.086;2023-02-04T09:25:35;103473.03;;;9.87;95.95
33265;BME280;31404;53.974;-1.086;2023-02-04T09:30:42;103474.12;;;9.70;94.18
33265;BME280;31404;53.974;-1.086;2023-02-04T09:35:35;103475.70;;;10.25;92.57
33265;BME280;31404;53.974;-1.086;2023-02-04T09:40:39;103473.95;;;9.54;96.59
33265;BME280;31404;53.974;-1.086;2023-02-04T09:45:35;103489.40;;;9.16;98.29
33265;BME280;31404;53.974;-1.086;2023-02-04T09:50:34;103503.10;;;8.67;100.00
33265;BME280;31404;53.974;-1.086;2023-02-04T09:55:37;103514.15;;;8.70;100.00
33265;BME280;31404;53.974;-1.086;2023-02-04T10:00:34;103516.39;;;8.21;100.00
33265;BME280;31404;53.974;-1.086;2023-02-04T10:05:34;103509.41;;;8.22;100.00
33265;BME280;31404;53.974;-1.086;2023-02-04T10:10:34;103511.21;;;8.76;99.68
33265;BME280;31404;53.974;-1.086;2023-02-04T10:15:34;103510.41;;;9.00;98.06
33265;BME280;31404;53.974;-1.086;2023-02-04T10:20:34;103515.76;;;8.63;100.00
33265;BME280;31404;53.974;-1.086;2023-02-04T10:25:34;103516.09;;;7.50;100.00
33265;BME280;31404;53.974;-1.086;2023-02-04T10:40:35;103514.81;;;6.74;100.00
33265;BME280;31404;53.974;-1.086;2023-02-04T10:45:35;103513.90;;;7.57;100.00
33265;BME280;31404;53.974;-1.086;2023-02-04T10:50:35;103508.46;;;8.44;98.78
33265;BME280;31404;53.974;-1.086;2023-02-04T10:55:35;103508.29;;;7.83;99.86
33265;BME280;31404;53.974;-1.086;2023-02-04T11:00:35;103514.83;;;7.17;100.00
33265;BME280;31404;53.974;-1.086;2023-02-04T11:05:36;103512.11;;;7.92;96.51
33265;BME280;31404;53.974;-1.086;2023-02-04T11:10:35;103515.36;;;6.78;100.00
33265;BME280;31404;53.974;-1.086;2023-02-04T11:15:39;103518.50;;;7.77;96.43
33265;BME280;31404;53.974;-1.086;2023-02-04T11:20:36;103537.01;;;6.44;100.00
33265;BME280;31404;53.974;-1.086;2023-02-04T11:25:36;103537.79;;;6.06;100.00
33265;BME280;31404;53.974;-1.086;2023-02-04T11:30:35;103530.98;;;6.75;98.28
33265;BME280;31404;53.974;-1.086;2023-02-04T11:35:34;103533.56;;;5.89;100.00
33265;BME280;31404;53.974;-1.086;2023-02-04T11:40:35;103531.27;;;6.64;98.73
33265;BME280;31404;53.974;-1.086;2023-02-04T11:45:37;103530.65;;;6.75;96.92
33265;BME280;31404;53.974;-1.086;2023-02-04T11:50:35;103535.46;;;6.68;95.80
33265;BME280;31404;53.974;-1.086;2023-02-04T11:55:43;103539.38;;;6.45;96.55
33265;BME280;31404;53.974;-1.086;2023-02-04T12:00:34;103557.88;;;5.19;96.47
33265;BME280;31404;53.974;-1.086;2023-02-04T12:05:39;103527.94;;;6.81;89.95
33265;BME280;31404;53.974;-1.086;2023-02-04T12:10:34;103522.01;;;7.35;88.25
33265;BME280;31404;53.974;-1.086;2023-02-04T12:15:35;103519.36;;;7.35;87.54
33265;BME280;31404;53.974;-1.086;2023-02-04T12:20:35;103519.69;;;7.35;86.92
33265;BME280;31404;53.974;-1.086;2023-02-04T12:25:35;103519.69;;;8.97;82.39
33265;BME280;31404;53.974;-1.086;2023-02-04T12:30:34;103518.94;;;8.20;84.30
33265;BME280;31404;53.974;-1.086;2023-02-04T12:35:35;103515.84;;;8.95;82.11
33265;BME280;31404;53.974;-1.086;2023-02-04T12:40:35;103516.99;;;7.81;82.73
33265;BME280;31404;53.974;-1.086;2023-02-04T12:45:34;103516.55;;;8.50;80.33
33265;BME280;31404;53.974;-1.086;2023-02-04T12:50:34;103520.01;;;8.59;81.18
33265;BME280;31404;53.974;-1.086;2023-02-04T12:55:35;103520.71;;;8.48;79.91
33265;BME280;31404;53.974;-1.086;2023-02-04T13:00:35;103514.88;;;8.57;80.33
33265;BME280;31404;53.974;-1.086;2023-02-04T13:05:36;103511.60;;;8.70;76.91
33265;BME280;31404;53.974;-1.086;2023-02-04T13:10:35;103509.11;;;8.82;77.82
33265;BME280;31404;53.974;-1.086;2023-02-04T13:15:35;103494.87;;;9.35;73.83
33265;BME280;31404;53.974;-1.086;2023-02-04T13:20:35;103487.85;;;10.29;71.40
33265;BME280;31404;53.974;-1.086;2023-02-04T13:25:34;103497.47;;;8.77;75.76
33265;BME280;31404;53.974;-1.086;2023-02-04T13:30:34;103486.93;;;10.14;71.89
33265;BME280;31404;53.974;-1.086;2023-02-04T13:35:34;103488.88;;;9.31;75.26
33265;BME280;31404;53.974;-1.086;2023-02-04T13:40:35;103491.60;;;9.22;76.32
33265;BME280;31404;53.974;-1.086;2023-02-04T13:50:34;103468.48;;;8.58;81.08
33265;BME280;31404;53.974;-1.086;2023-02-04T13:55:34;103470.68;;;8.60;81.69
33265;BME280;31404;53.974;-1.086;2023-02-04T14:00:34;103459.94;;;8.91;79.51
33265;BME280;31404;53.974;-1.086;2023-02-04T14:05:35;103452.34;;;9.83;76.83
33265;BME280;31404;53.974;-1.086;2023-02-04T14:10:35;103449.12;;;9.80;76.45
33265;BME280;31404;53.974;-1.086;2023-02-04T14:15:35;103445.19;;;9.02;78.09
33265;BME280;31404;53.974;-1.086;2023-02-04T14:20:34;103442.24;;;8.99;77.96
33265;BME280;31404;53.974;-1.086;2023-02-04T14:25:40;103452.46;;;8.55;79.43
33265;BME280;31404;53.974;-1.086;2023-02-04T14:30:35;103440.34;;;9.55;76.81
33265;BME280;31404;53.974;-1.086;2023-02-04T14:35:35;103435.74;;;9.47;77.30
33265;BME280;31404;53.974;-1.086;2023-02-04T14:40:35;103445.06;;;9.50;76.80
33265;BME280;31404;53.974;-1.086;2023-02-04T14:45:35;103444.45;;;9.08;79.30
33265;BME280;31404;53.974;-1.086;2023-02-04T14:50:34;103448.41;;;8.38;79.94
33265;BME280;31404;53.974;-1.086;2023-02-04T14:55:34;103429.68;;;9.16;77.77
33265;BME280;31404;53.974;-1.086;2023-02-04T15:00:34;103447.05;;;9.59;76.40
33265;BME280;31404;53.974;-1.086;2023-02-04T15:05:34;103457.86;;;8.27;80.70
33265;BME280;31404;53.974;-1.086;2023-02-04T15:10:35;103457.52;;;8.90;79.63
33265;BME280;31404;53.974;-1.086;2023-02-04T15:15:35;103453.22;;;8.78;79.98
33265;BME280;31404;53.974;-1.086;2023-02-04T15:20:35;103438.42;;;9.41;79.75
33265;BME280;31404;53.974;-1.086;2023-02-04T15:25:36;103446.99;;;8.24;82.95
33265;BME280;31404;53.974;-1.086;2023-02-04T15:30:35;103443.37;;;9.48;80.67
33265;BME280;31404;53.974;-1.086;2023-02-04T15:35:35;103454.31;;;9.27;80.69
33265;BME280;31404;53.974;-1.086;2023-02-04T15:40:35;103461.20;;;9.46;79.89
33265;BME280;31404;53.974;-1.086;2023-02-04T15:45:34;103458.80;;;9.30;80.42
33265;BME280;31404;53.974;-1.086;2023-02-04T15:50:34;103467.24;;;8.17;84.24
33265;BME280;31404;53.974;-1.086;2023-02-04T15:55:35;103464.35;;;7.16;91.84
33265;BME280;31404;53.974;-1.086;2023-02-04T16:00:35;103465.79;;;7.01;93.25
33265;BME280;31404;53.974;-1.086;2023-02-04T16:05:35;103449.91;;;7.09;93.14
33265;BME280;31404;53.974;-1.086;2023-02-04T16:10:35;103454.97;;;7.28;91.96
33265;BME280;31404;53.974;-1.086;2023-02-04T16:15:35;103461.57;;;7.07;90.91
33265;BME280;31404;53.974;-1.086;2023-02-04T16:20:35;103463.57;;;7.19;90.44
33265;BME280;31404;53.974;-1.086;2023-02-04T16:25:35;103463.14;;;7.96;88.46
33265;BME280;31404;53.974;-1.086;2023-02-04T16:30:35;103473.64;;;6.70;93.30
33265;BME280;31404;53.974;-1.086;2023-02-04T16:40:35;103469.82;;;8.51;85.96
33265;BME280;31404;53.974;-1.086;2023-02-04T16:45:35;103467.96;;;7.38;92.03
33265;BME280;31404;53.974;-1.086;2023-02-04T16:50:34;103478.33;;;8.06;87.72
33265;BME280;31404;53.974;-1.086;2023-02-04T16:55:35;103471.71;;;8.44;87.25
33265;BME280;31404;53.974;-1.086;2023-02-04T17:00:35;103479.87;;;9.97;79.82
33265;BME280;31404;53.974;-1.086;2023-02-04T17:05:35;103480.63;;;10.16;79.12
33265;BME280;31404;53.974;-1.086;2023-02-04T17:10:35;103490.46;;;10.90;81.21
33265;BME280;31404;53.974;-1.086;2023-02-04T17:15:35;103486.30;;;11.59;75.88
33265;BME280;31404;53.974;-1.086;2023-02-04T17:20:34;103491.96;;;11.60;72.48
33265;BME280;31404;53.974;-1.086;2023-02-04T17:25:35;103498.41;;;11.26;73.45
33265;BME280;31404;53.974;-1.086;2023-02-04T17:30:35;103505.14;;;10.69;76.24
33265;BME280;31404;53.974;-1.086;2023-02-04T17:35:35;103496.50;;;9.90;78.72
33265;BME280;31404;53.974;-1.086;2023-02-04T17:40:35;103492.99;;;10.40;77.35
33265;BME280;31404;53.974;-1.086;2023-02-04T17:45:34;103501.12;;;11.11;75.30
33265;BME280;31404;53.974;-1.086;2023-02-04T17:50:36;103512.38;;;9.81;79.18
33265;BME280;31404;53.974;-1.086;2023-02-04T17:55:35;103517.79;;;10.37;77.49
33265;BME280;31404;53.974;-1.086;2023-02-04T18:00:35;103531.15;;;10.42;78.55
33265;BME280;31404;53.974;-1.086;2023-02-04T18:05:43;103530.41;;;10.12;80.52
33265;BME280;31404;53.974;-1.086;2023-02-04T18:10:37;103532.34;;;11.20;75.24
33265;BME280;31404;53.974;-1.086;2023-02-04T18:15:35;103552.80;;;9.86;89.59
33265;BME280;31404;53.974;-1.086;2023-02-04T18:20:35;103551.98;;;10.58;78.08
33265;BME280;31404;53.974;-1.086;2023-02-04T18:25:34;103554.39;;;10.43;79.58
33265;BME280;31404;53.974;-1.086;2023-02-04T18:30:35;103562.33;;;10.92;79.95
33265;BME280;31404;53.974;-1.086;2023-02-04T18:35:40;103561.60;;;11.73;75.05
33265;BME280;31404;53.974;-1.086;2023-02-04T18:40:35;103555.61;;;11.90;73.10
33265;BME280;31404;53.974;-1.086;2023-02-04T18:45:36;103558.00;;;11.43;74.46
33265;BME280;31404;53.974;-1.086;2023-02-04T18:50:35;103567.59;;;9.14;83.46
33265;BME280;31404;53.974;-1.086;2023-02-04T18:55:37;103564.46;;;9.42;83.62
33265;BME280;31404;53.974;-1.086;2023-02-04T19:00:35;103549.61;;;11.64;83.96
33265;BME280;31404;53.974;-1.086;2023-02-04T19:05:35;103558.23;;;11.77;75.41
33265;BME280;31404;53.974;-1.086;2023-02-04T19:10:37;103552.73;;;12.13;73.89
33265;BME280;31404;53.974;-1.086;2023-02-04T19:15:36;103558.20;;;10.34;79.37
33265;BME280;31404;53.974;-1.086;2023-02-04T19:20:35;103559.90;;;11.46;75.10
33265;BME280;31404;53.974;-1.086;2023-02-04T19:40:38;103572.72;;;10.83;79.17
33265;BME280;31404;53.974;-1.086;2023-02-04T19:45:34;103567.46;;;9.46;85.84
33265;BME280;31404;53.974;-1.086;2023-02-04T19:50:35;103561.60;;;7.81;95.84
33265;BME280;31404;53.974;-1.086;2023-02-04T20:00:39;103566.52;;;6.45;100.00
33265;BME280;31404;53.974;-1.086;2023-02-04T20:05:36;103579.95;;;7.18;100.00
33265;BME280;31404;53.974;-1.086;2023-02-04T20:10:35;103578.91;;;7.36;100.00
33265;BME280;31404;53.974;-1.086;2023-02-04T20:15:35;103602.46;;;7.28;100.00
33265;BME280;31404;53.974;-1.086;2023-02-04T20:20:41;103648.70;;;6.64;100.00
33265;BME280;31404;53.974;-1.086;2023-02-04T20:30:35;103655.62;;;4.51;100.00
33265;BME280;31404;53.974;-1.086;2023-02-04T20:40:45;103687.48;;;5.46;98.72
33265;BME280;31404;53.974;-1.086;2023-02-04T20:45:37;103711.12;;;5.00;100.00
33265;BME280;31404;53.974;-1.086;2023-02-04T20:50:38;103722.00;;;5.30;99.43
33265;BME280;31404;53.974;-1.086;2023-02-04T20:55:34;103719.37;;;5.88;95.29
33265;BME280;31404;53.974;-1.086;2023-02-04T21:00:34;103707.93;;;4.84;97.75
33265;BME280;31404;53.974;-1.086;2023-02-04T21:05:35;103704.51;;;5.13;95.37
33265;BME280;31404;53.974;-1.086;2023-02-04T21:10:40;103682.69;;;4.85;93.09
33265;BME280;31404;53.974;-1.086;2023-02-04T21:15:36;103699.20;;;4.63;93.17
33265;BME280;31404;53.974;-1.086;2023-02-04T21:20:35;103700.85;;;4.64;90.89
33265;BME280;31404;53.974;-1.086;2023-02-04T21:25:35;103727.35;;;4.21;89.79
33265;BME280;31404;53.974;-1.086;2023-02-04T21:30:35;103725.85;;;4.33;88.11
33265;BME280;31404;53.974;-1.086;2023-02-04T21:35:36;103736.00;;;5.60;83.90
33265;BME280;31404;53.974;-1.086;2023-02-04T21:40:36;103716.59;;;5.36;81.94
33265;BME280;31404;53.974;-1.086;2023-02-04T21:45:36;103718.99;;;5.71;78.72
33265;BME280;31404;53.974;-1.086;2023-02-04T21:50:40;103720.98;;;4.90;81.55
33265;BME280;31404;53.974;-1.086;2023-02-04T21:55:35;103749.87;;;5.44;79.15
33265;BME280;31404;53.974;-1.086;2023-02-04T22:00:34;103777.16;;;6.56;76.00
33265;BME280;31404;53.974;-1.086;2023-02-04T22:05:34;103793.27;;;4.82;79.55
33265;BME280;31404;53.974;-1.086;2023-02-04T22:10:35;103802.14;;;3.92;83.15
33265;BME280;31404;53.974;-1.086;2023-02-04T22:15:36;103788.94;;;3.59;87.72
33265;BME280;31404;53.974;-1.086;2023-02-04T22:20:36;103802.06;;;3.37;89.65
33265;BME280;31404;53.974;-1.086;2023-02-04T22:25:35;103818.19;;;3.06;91.07
33265;BME280;31404;53.974;-1.086;2023-02-04T22:30:35;103825.66;;;4.02;84.75
33265;BME280;31404;53.974;-1.086;2023-02-04T22:35:35;103835.36;;;4.72;81.71
33265;BME280;31404;53.974;-1.086;2023-02-04T22:40:41;103828.41;;;3.58;83.91
33265;BME280;31404;53.974;-1.086;2023-02-04T22:45:36;103832.65;;;3.89;83.09
33265;BME280;31404;53.974;-1.086;2023-02-04T22:50:35;103839.43;;;3.83;84.50
33265;BME280;31404;53.974;-1.086;2023-02-04T22:55:40;103834.39;;;4.09;80.87
33265;BME280;31404;53.974;-1.086;2023-02-04T23:00:36;103849.42;;;5.17;76.38
33265;BME280;31404;53.974;-1.086;2023-02-04T23:05:36;103869.59;;;4.00;81.24
33265;BME280;31404;53.974;-1.086;2023-02-04T23:10:35;103860.31;;;2.11;90.51
33265;BME280;31404;53.974;-1.086;2023-02-04T23:15:36;103863.06;;;1.95;91.32
33265;BME280;31404;53.974;-1.086;2023-02-04T23:20:35;103906.76;;;3.11;85.09
33265;BME280;31404;53.974;-1.086;2023-02-04T23:25:35;103923.71;;;4.48;78.40
33265;BME280;31404;53.974;-1.086;2023-02-04T23:30:34;103914.87;;;3.96;81.11
33265;BME280;31404;53.974;-1.086;2023-02-04T23:35:35;103943.00;;;2.96;83.63
33265;BME280;31404;53.974;-1.086;2023-02-04T23:40:35;103957.08;;;2.63;84.62
33265;BME280;31404;53.974;-1.086;2023-02-04T23:45:34;103938.95;;;2.69;84.73
33265;BME280;31404;53.974;-1.086;2023-02-04T23:50:35;103953.64;;;2.25;88.25
33265;BME280;31404;53.974;-1.086;2023-02-04T23:55:35;103976.37;;;3.25;84.75
